Terminal Aerodrome Forecast
Issued by NWS

Home | Current Version | Previous Version | Text Only | Print | Product List | Glossary On
Versions: 1 2 3 4 5 6 7 8 9 10 11 12 13 14 15 16 17
959
FTUS43 KLSX 081406 AAB
TAFUIN
TAF AMD
KUIN 081406Z 0814/0912 30022G32KT 6SM -SN OVC040
      TEMPO 0814/0818 3SM -SN BR BKN015
     FM090600 32016G26KT P6SM OVC025=

USA.gov is the U.S. government's official web portal to all federal, state and local government web resources and services.